Time;durP1;ratioP1;P1;durP2;ratioP2;P2;SDS_P1;SDS_P2;PMS_P1;PMS_P2;Temp;Humidity;BMP_temperature;BMP_pressure;BME280_temperature;BME280_humidity;BME280_pressure;Samples;Min_cycle;Max_cycle;Signal;HPM_P1;HPM_P2
2023/06/22 00:01:14;;;;;;;250.85;233.90;;;;;;;19.43;100.00;101351.00;6093635;23;20376;-82
2023/06/22 00:03:41;;;;;;;279.05;260.30;;;;;;;19.13;100.00;101338.75;6093409;23;20022;-82
2023/06/22 00:06:08;;;;;;;314.15;292.98;;;;;;;19.20;100.00;101344.75;6093412;23;20380;-82
2023/06/22 00:08:34;;;;;;;279.55;260.77;;;;;;;19.44;100.00;101345.34;6092672;23;20021;-82
2023/06/22 00:11:01;;;;;;;274.73;257.08;;;;;;;19.23;100.00;101346.16;6092881;23;20023;-82
2023/06/22 00:13:28;;;;;;;284.13;265.77;;;;;;;18.70;100.00;101340.22;6092844;23;20022;-82
2023/06/22 00:15:57;;;;;;;279.45;260.65;;;;;;;18.81;100.00;101338.53;6093500;23;20044;-82
2023/06/22 00:18:27;;;;;;;265.17;247.77;;;;;;;18.68;100.00;101334.25;6094566;23;20029;-83
2023/06/22 00:21:00;;;;;;;269.40;252.25;;;;;;;18.68;100.00;101336.97;6094595;23;20050;-82
2023/06/22 00:23:36;;;;;;;274.45;256.50;;;;;;;18.85;100.00;101334.31;6094725;23;20026;-83
2023/06/22 00:26:03;;;;;;;275.13;257.52;;;;;;;18.95;100.00;101329.06;6094514;23;20014;-82
2023/06/22 00:28:30;;;;;;;273.00;255.38;;;;;;;18.74;100.00;101330.63;6094095;23;20023;-83
2023/06/22 00:31:00;;;;;;;140.07;128.10;;;;;;;18.95;100.00;101321.00;6093367;23;20026;-83
2023/06/22 00:33:28;;;;;;;137.27;125.38;;;;;;;18.90;100.00;101325.47;6094411;23;20102;-83
2023/06/22 00:35:55;;;;;;;124.72;113.53;;;;;;;18.95;100.00;101320.19;6096264;23;20030;-82
2023/06/22 00:38:22;;;;;;;136.65;124.40;;;;;;;18.47;100.00;101326.94;6095738;23;20021;-82
2023/06/22 00:40:49;;;;;;;137.52;125.35;;;;;;;18.03;100.00;101327.53;6095688;23;20022;-83
2023/06/22 00:43:16;;;;;;;140.00;127.40;;;;;;;18.36;100.00;101333.19;6095959;23;20377;-83
2023/06/22 00:45:42;;;;;;;149.65;136.35;;;;;;;18.65;100.00;101339.31;6096367;23;20041;-82
2023/06/22 00:48:11;;;;;;;127.40;115.38;;;;;;;18.44;100.00;101327.41;6096177;23;20030;-83
2023/06/22 00:50:38;;;;;;;134.40;121.90;;;;;;;18.64;100.00;101330.44;6096633;23;20486;-83
2023/06/22 00:53:08;;;;;;;131.20;118.80;;;;;;;18.61;100.00;101336.31;6096078;23;20028;-83
2023/06/22 00:55:38;;;;;;;130.75;118.88;;;;;;;18.67;100.00;101329.97;6096283;23;20026;-83
2023/06/22 00:58:09;;;;;;;132.30;120.18;;;;;;;18.69;100.00;101330.50;6096267;23;20376;-83
2023/06/22 01:00:37;;;;;;;126.30;115.00;;;;;;;18.67;100.00;101324.56;6096304;23;20022;-82
2023/06/22 01:03:08;;;;;;;126.43;114.95;;;;;;;18.48;100.00;101318.59;6094304;23;20025;-82
2023/06/22 01:05:37;;;;;;;118.32;107.57;;;;;;;18.50;100.00;101319.19;6094654;23;20090;-82
2023/06/22 01:08:17;;;;;;;149.45;136.20;;;;;;;18.58;100.00;101327.91;6094972;23;20023;-83
2023/06/22 01:10:47;;;;;;;118.85;107.75;;;;;;;18.51;100.00;101325.38;6094873;23;20041;-83
2023/06/22 01:13:24;;;;;;;126.55;114.72;;;;;;;18.22;100.00;101321.94;6096121;23;20041;-83
2023/06/22 01:15:57;;;;;;;124.45;113.05;;;;;;;18.29;100.00;101323.41;6096038;23;20022;-82
2023/06/22 01:18:27;;;;;;;128.32;116.93;;;;;;;18.31;100.00;101326.66;6094886;23;20468;-82
2023/06/22 01:20:57;;;;;;;119.78;109.15;;;;;;;18.34;100.00;101316.50;6094720;23;20023;-82
2023/06/22 01:23:30;;;;;;;133.65;121.03;;;;;;;18.48;100.00;101325.84;6094930;23;20022;-83
2023/06/22 01:26:06;;;;;;;123.07;111.68;;;;;;;18.44;100.00;101325.53;6096528;23;20026;-83
2023/06/22 01:28:45;;;;;;;128.57;117.10;;;;;;;18.43;100.00;101321.22;6095145;23;20015;-83
2023/06/22 01:31:16;;;;;;;129.90;118.13;;;;;;;18.01;100.00;101321.56;6096253;23;20468;-83
2023/06/22 01:33:46;;;;;;;137.20;124.15;;;;;;;17.93;100.00;101331.88;6095599;23;20077;-82
2023/06/22 01:36:14;;;;;;;125.80;114.10;;;;;;;18.22;100.00;101333.50;6095635;23;20029;-82
2023/06/22 01:38:43;;;;;;;121.60;110.32;;;;;;;18.24;100.00;101330.56;6096090;23;20109;-83
2023/06/22 01:41:13;;;;;;;118.80;107.28;;;;;;;18.39;100.00;101346.16;6096160;23;20018;-83
2023/06/22 01:43:42;;;;;;;123.85;112.60;;;;;;;18.12;100.00;101348.63;6095874;23;20385;-83
2023/06/22 01:46:09;;;;;;;128.55;116.35;;;;;;;18.26;100.00;101353.47;6095819;23;20105;-81
2023/06/22 01:48:36;;;;;;;133.88;122.03;;;;;;;18.24;100.00;101368.19;6095328;23;20066;-82
2023/06/22 01:51:04;;;;;;;130.07;118.22;;;;;;;18.35;100.00;101361.13;6095651;23;20018;-83
2023/06/22 01:53:31;;;;;;;122.45;110.80;;;;;;;18.37;100.00;101359.84;6095807;23;20022;-83
2023/06/22 01:55:58;;;;;;;130.50;118.43;;;;;;;18.37;100.00;101353.66;6094795;23;20023;-83
2023/06/22 01:58:28;;;;;;;129.27;117.15;;;;;;;18.21;100.00;101355.22;6095972;23;20082;-83
2023/06/22 02:00:59;;;;;;;136.35;124.13;;;;;;;18.29;100.00;101362.91;6096041;23;20026;-82
2023/06/22 02:03:32;;;;;;;120.18;108.90;;;;;;;18.22;100.00;101375.72;6095835;23;20461;-83
2023/06/22 02:06:09;;;;;;;127.68;116.28;;;;;;;18.25;100.00;101369.84;6095329;23;20029;-82
2023/06/22 02:08:45;;;;;;;120.70;109.80;;;;;;;18.14;100.00;101366.13;6095470;23;20026;-83
2023/06/22 02:11:16;;;;;;;120.35;109.47;;;;;;;18.13;100.00;101372.59;6095327;23;20019;-82
2023/06/22 02:13:43;;;;;;;118.13;106.80;;;;;;;18.16;100.00;101372.09;6093751;23;20022;-82
2023/06/22 02:16:13;;;;;;;119.40;108.68;;;;;;;17.62;100.00;101366.16;6094154;23;20033;-81
2023/06/22 02:18:46;;;;;;;127.05;115.55;;;;;;;17.73;100.00;101383.28;6093710;23;20023;-81
2023/06/22 02:21:13;;;;;;;112.40;102.10;;;;;;;17.59;100.00;101383.56;6093533;23;20381;-82
2023/06/22 02:23:40;;;;;;;111.88;101.22;;;;;;;17.35;100.00;101388.16;6093750;23;20041;-82
2023/06/22 02:26:06;;;;;;;116.45;105.68;;;;;;;17.70;100.00;101389.13;6093200;23;20044;-82
2023/06/22 02:28:33;;;;;;;111.68;101.28;;;;;;;17.62;100.00;101390.34;6093812;23;20022;-82
2023/06/22 02:31:00;;;;;;;101.30;91.35;;;;;;;17.52;100.00;101392.78;6093521;23;20022;-82
2023/06/22 02:33:29;;;;;;;108.65;99.25;;;;;;;17.49;100.00;101386.03;6094110;23;20022;-82
2023/06/22 02:35:55;;;;;;;96.55;87.20;;;;;;;17.64;100.00;101393.63;6093848;23;20364;-82
2023/06/22 02:38:24;;;;;;;96.97;87.72;;;;;;;17.29;100.00;101393.66;6093562;23;20023;-81
2023/06/22 02:40:51;;;;;;;95.18;85.68;;;;;;;17.44;100.00;101401.22;6093201;23;20472;-81
2023/06/22 02:43:18;;;;;;;97.25;87.60;;;;;;;17.22;100.00;101398.31;6094414;23;20018;-83
2023/06/22 02:45:45;;;;;;;91.78;82.85;;;;;;;17.61;100.00;101415.56;6094994;23;20038;-83
2023/06/22 02:48:13;;;;;;;96.45;87.63;;;;;;;17.59;100.00;101417.66;6095278;23;20023;-83
2023/06/22 02:50:42;;;;;;;88.55;79.88;;;;;;;17.73;100.00;101411.00;6093745;23;20431;-82
2023/06/22 02:53:08;;;;;;;91.95;83.05;;;;;;;17.76;100.00;101401.63;6093990;23;20026;-81
2023/06/22 02:55:35;;;;;;;92.50;83.57;;;;;;;17.71;100.00;101396.97;6093214;23;20022;-81
2023/06/22 02:58:04;;;;;;;87.50;79.20;;;;;;;17.60;100.00;101406.69;6093010;23;20033;-82
2023/06/22 03:00:32;;;;;;;96.57;87.63;;;;;;;17.58;100.00;101411.50;6093605;23;20388;-82
2023/06/22 03:02:59;;;;;;;87.80;79.15;;;;;;;17.47;100.00;101409.63;6093018;23;20027;-82
2023/06/22 03:05:26;;;;;;;83.97;75.85;;;;;;;17.20;100.00;101417.34;6093399;23;20021;-81
2023/06/22 03:07:54;;;;;;;85.60;76.95;;;;;;;17.40;100.00;101428.53;6093435;23;20018;-81
2023/06/22 03:10:21;;;;;;;86.68;78.28;;;;;;;17.47;100.00;101419.56;6093073;23;20045;-82
2023/06/22 03:12:48;;;;;;;82.97;74.88;;;;;;;17.08;100.00;101414.63;6093283;23;20028;-81
2023/06/22 03:15:15;;;;;;;91.43;82.72;;;;;;;17.62;100.00;101425.25;6093201;23;20018;-81
2023/06/22 03:17:42;;;;;;;87.25;78.30;;;;;;;17.83;100.00;101424.66;6093877;23;20452;-82
2023/06/22 03:20:10;;;;;;;179.65;166.45;;;;;;;17.81;100.00;101425.94;6093075;23;20014;-81
2023/06/22 03:22:37;;;;;;;169.77;157.27;;;;;;;17.72;100.00;101430.03;6093185;23;20089;-81
2023/06/22 03:25:10;;;;;;;171.77;159.10;;;;;;;17.74;100.00;101418.00;6092583;23;20022;-81
2023/06/22 03:27:37;;;;;;;166.98;154.65;;;;;;;17.82;100.00;101424.88;6092694;23;20424;-82
2023/06/22 03:30:04;;;;;;;175.10;162.30;;;;;;;17.86;100.00;101418.00;6093426;23;20045;-81
2023/06/22 03:32:32;;;;;;;162.85;150.85;;;;;;;17.95;100.00;101418.47;6093307;23;20018;-81
2023/06/22 03:34:59;;;;;;;183.30;170.55;;;;;;;18.05;100.00;101430.22;6093484;23;20361;-81
2023/06/22 03:37:26;;;;;;;164.00;151.73;;;;;;;18.19;100.00;101427.25;6093005;23;20090;-81
2023/06/22 03:39:53;;;;;;;132.88;123.43;;;;;;;18.20;100.00;101421.63;6092809;23;20118;-81
2023/06/22 03:42:21;;;;;;;129.45;120.32;;;;;;;18.18;100.00;101415.66;6092768;23;20652;-81
2023/06/22 03:44:48;;;;;;;90.72;81.90;;;;;;;18.19;100.00;101417.31;6093364;23;20022;-81
2023/06/22 03:47:15;;;;;;;91.38;82.18;;;;;;;18.28;100.00;101409.69;6093616;23;20457;-81
2023/06/22 03:49:45;;;;;;;87.97;79.03;;;;;;;18.40;100.00;101415.84;6093956;23;20018;-83
2023/06/22 03:52:12;;;;;;;92.88;84.05;;;;;;;18.31;100.00;101409.22;6095398;23;20071;-83
2023/06/22 03:54:39;;;;;;;90.40;81.85;;;;;;;18.48;100.00;101412.75;6093866;23;20372;-81
2023/06/22 03:57:06;;;;;;;97.70;88.93;;;;;;;18.63;100.00;101416.75;6092917;23;20019;-81
2023/06/22 03:59:35;;;;;;;97.38;88.32;;;;;;;18.69;100.00;101423.88;6093324;23;20029;-81
2023/06/22 04:02:01;;;;;;;87.20;79.32;;;;;;;18.82;100.00;101414.69;6093176;23;20018;-81
2023/06/22 04:04:28;;;;;;;92.45;83.97;;;;;;;18.93;100.00;101420.00;6093559;23;20018;-81
2023/06/22 04:06:55;;;;;;;92.95;84.28;;;;;;;19.01;100.00;101418.78;6093929;23;20030;-81
2023/06/22 04:09:22;;;;;;;89.60;81.47;;;;;;;19.01;100.00;101417.97;6093674;23;20022;-81
2023/06/22 04:11:49;;;;;;;92.10;83.50;;;;;;;19.17;100.00;101409.88;6095157;23;20101;-81
2023/06/22 04:14:16;;;;;;;96.97;87.68;;;;;;;19.27;100.00;101416.47;6095275;23;20019;-81
2023/06/22 04:16:44;;;;;;;98.80;89.55;;;;;;;19.25;100.00;101416.72;6095828;23;20023;-81
2023/06/22 04:19:16;;;;;;;108.28;98.40;;;;;;;19.06;100.00;101416.16;6094805;23;20026;-81
2023/06/22 04:21:44;;;;;;;107.20;97.10;;;;;;;19.40;100.00;101419.66;6094838;23;20468;-81
2023/06/22 04:24:11;;;;;;;112.10;101.60;;;;;;;19.70;100.00;101421.16;6094432;23;20026;-82
2023/06/22 04:26:38;;;;;;;114.55;104.53;;;;;;;19.71;100.00;101413.88;6094748;23;20496;-81
2023/06/22 04:29:06;;;;;;;116.95;106.85;;;;;;;19.90;100.00;101421.41;6094666;23;20354;-81
2023/06/22 04:31:36;;;;;;;116.38;106.25;;;;;;;20.07;100.00;101417.84;6095078;23;20468;-83
2023/06/22 04:34:07;;;;;;;112.30;102.35;;;;;;;19.96;100.00;101422.28;6095488;23;20022;-83
2023/06/22 04:36:37;;;;;;;120.07;109.70;;;;;;;20.18;100.00;101426.84;6096562;23;20022;-83
2023/06/22 04:39:06;;;;;;;114.80;105.07;;;;;;;20.27;100.00;101430.72;6095945;23;20026;-83
2023/06/22 04:41:41;;;;;;;127.78;117.28;;;;;;;20.50;100.00;101438.53;6096102;23;20102;-82
2023/06/22 04:44:13;;;;;;;124.38;113.78;;;;;;;20.52;100.00;101432.91;6095640;23;20042;-83
2023/06/22 04:46:41;;;;;;;122.97;112.63;;;;;;;20.72;100.00;101440.38;6096819;23;20097;-83
2023/06/22 04:49:10;;;;;;;115.43;105.55;;;;;;;20.85;100.00;101441.81;6096544;23;20488;-83
2023/06/22 04:51:41;;;;;;;121.85;111.65;;;;;;;20.96;100.00;101444.34;6094021;23;20476;-83
2023/06/22 04:54:09;;;;;;;124.18;113.43;;;;;;;21.08;100.00;101449.59;6093600;23;20022;-83
2023/06/22 04:56:36;;;;;;;120.80;110.45;;;;;;;20.95;100.00;101444.63;6094017;23;20023;-83
2023/06/22 04:59:04;;;;;;;125.25;114.90;;;;;;;21.20;100.00;101444.00;6094418;23;20033;-83
2023/06/22 05:01:31;;;;;;;116.82;107.15;;;;;;;21.06;100.00;101443.66;6094290;23;20026;-83
2023/06/22 05:04:00;;;;;;;116.82;107.00;;;;;;;21.29;100.00;101445.16;6092888;23;20036;-82
2023/06/22 05:06:29;;;;;;;124.47;114.30;;;;;;;21.60;100.00;101429.94;6089684;23;20099;-82
2023/06/22 05:08:57;;;;;;;124.72;114.47;;;;;;;21.93;100.00;101425.25;6089745;23;20026;-81
2023/06/22 05:11:24;;;;;;;127.88;117.47;;;;;;;22.21;100.00;101426.75;6091352;23;20442;-82
2023/06/22 05:13:51;;;;;;;126.25;116.22;;;;;;;21.99;100.00;101431.50;6091970;23;20030;-82
2023/06/22 05:16:23;;;;;;;125.25;115.15;;;;;;;22.14;100.00;101434.25;6093558;23;20030;-82
2023/06/22 05:18:55;;;;;;;127.97;117.68;;;;;;;22.18;100.00;101441.59;6094563;23;20018;-83
2023/06/22 05:21:26;;;;;;;129.88;119.50;;;;;;;22.22;100.00;101435.66;6095418;23;20042;-83
2023/06/22 05:23:55;;;;;;;126.60;116.10;;;;;;;22.40;100.00;101429.75;6095342;23;20041;-83
2023/06/22 05:26:23;;;;;;;127.78;117.20;;;;;;;22.51;100.00;101427.84;6095326;23;20112;-83
2023/06/22 05:28:54;;;;;;;126.97;116.18;;;;;;;22.73;100.00;101441.16;6096061;23;20128;-83
2023/06/22 05:31:22;;;;;;;110.72;101.82;;;;;;;22.86;100.00;101435.19;6095413;23;20064;-83
2023/06/22 05:33:50;;;;;;;120.22;110.80;;;;;;;22.92;100.00;101438.72;6095263;23;20045;-82
2023/06/22 05:36:18;;;;;;;115.03;105.63;;;;;;;22.92;100.00;101433.31;6095148;23;20024;-83
2023/06/22 05:38:45;;;;;;;109.35;100.80;;;;;;;23.12;100.00;101429.78;6095474;23;20089;-83
2023/06/22 05:41:16;;;;;;;112.60;103.88;;;;;;;23.46;100.00;101438.16;6095752;23;20037;-83
2023/06/22 05:43:43;;;;;;;103.97;95.80;;;;;;;23.64;100.00;101425.91;6095402;23;20030;-82
2023/06/22 05:46:12;;;;;;;47.58;43.67;;;;;;;23.92;100.00;101427.16;6095782;23;20499;-83
2023/06/22 05:48:39;;;;;;;40.00;36.72;;;;;;;24.00;100.00;101413.03;6095764;23;20019;-84
2023/06/22 05:51:08;;;;;;;36.60;33.58;;;;;;;24.28;100.00;101411.50;6096355;23;20360;-83
2023/06/22 05:53:35;;;;;;;32.70;29.67;;;;;;;24.19;100.00;101413.19;6095689;23;20030;-85
2023/06/22 05:56:01;;;;;;;35.10;32.35;;;;;;;24.33;100.00;101413.41;6095272;23;20027;-83
2023/06/22 05:58:33;;;;;;;35.28;32.28;;;;;;;24.47;100.00;101413.59;6095400;23;20160;-82
2023/06/22 06:01:00;;;;;;;35.72;32.63;;;;;;;24.62;100.00;101400.69;6095293;23;20022;-83
2023/06/22 06:03:28;;;;;;;34.60;31.83;;;;;;;24.72;100.00;101410.69;6094233;23;20028;-83
2023/06/22 06:05:55;;;;;;;32.60;29.85;;;;;;;24.89;100.00;101415.69;6093853;23;20022;-81
2023/06/22 06:08:22;;;;;;;33.95;31.15;;;;;;;24.90;100.00;101404.56;6094350;23;20022;-83
2023/06/22 06:10:49;;;;;;;32.25;29.55;;;;;;;24.92;100.00;101417.84;6094099;23;20022;-81
2023/06/22 06:13:17;;;;;;;32.33;29.50;;;;;;;25.22;100.00;101407.81;6094241;23;20023;-82
2023/06/22 06:15:46;;;;;;;32.80;30.20;;;;;;;25.27;100.00;101413.19;6093655;23;20098;-81
2023/06/22 06:18:13;;;;;;;29.95;27.45;;;;;;;25.20;100.00;101421.69;6095117;23;20030;-83
2023/06/22 06:20:39;;;;;;;29.27;26.98;;;;;;;25.34;100.00;101417.19;6094114;23;20015;-82
2023/06/22 06:23:06;;;;;;;29.95;27.35;;;;;;;25.45;100.00;101408.94;6093700;23;20026;-80
2023/06/22 06:25:33;;;;;;;28.95;26.75;;;;;;;25.42;100.00;101407.59;6092508;23;20093;-82
2023/06/22 06:28:00;;;;;;;27.75;25.50;;;;;;;25.71;100.00;101404.78;6091962;23;20041;-81
2023/06/22 06:30:27;;;;;;;27.98;25.85;;;;;;;25.62;100.00;101403.00;6093726;23;20022;-82
2023/06/22 06:32:55;;;;;;;23.70;21.80;;;;;;;25.58;100.00;101400.88;6092847;23;20029;-82
2023/06/22 06:35:22;;;;;;;25.80;23.85;;;;;;;25.76;100.00;101404.75;6092944;23;20022;-81
2023/06/22 06:37:51;;;;;;;26.35;24.13;;;;;;;25.88;100.00;101409.78;6091966;23;20424;-81
2023/06/22 06:40:19;;;;;;;23.52;21.52;;;;;;;25.84;100.00;101399.75;6090835;23;20022;-82
2023/06/22 06:42:48;;;;;;;23.67;21.80;;;;;;;26.01;100.00;101409.06;6092196;23;20022;-81
2023/06/22 06:45:18;;;;;;;24.88;22.83;;;;;;;26.01;100.00;101413.69;6092386;23;20129;-82
2023/06/22 06:47:45;;;;;;;23.58;21.63;;;;;;;26.13;100.00;101416.78;6092705;23;20024;-82
2023/06/22 06:50:17;;;;;;;27.10;24.90;;;;;;;26.24;100.00;101404.66;6093008;23;20054;-82
2023/06/22 06:52:44;;;;;;;;;;;;;;;26.37;100.00;101410.47;6093287;23;20022;-82
2023/06/22 06:55:13;;;;;;;30.02;27.25;;;;;;;26.31;100.00;101407.00;6093519;23;19963;-83
2023/06/22 06:57:42;;;;;;;30.02;27.35;;;;;;;26.43;100.00;101404.63;6094468;23;20362;-84
2023/06/22 07:00:13;;;;;;;28.88;26.38;;;;;;;26.36;100.00;101415.09;6094343;23;20023;-83
2023/06/22 07:02:42;;;;;;;28.05;25.65;;;;;;;26.14;100.00;101415.69;6094270;23;20018;-83
2023/06/22 07:05:09;;;;;;;28.35;26.05;;;;;;;26.62;100.00;101412.00;6093170;23;20022;-82
2023/06/22 07:07:38;;;;;;;25.98;23.88;;;;;;;26.39;100.00;101402.81;6092543;23;20077;-82
2023/06/22 07:10:06;;;;;;;27.77;25.38;;;;;;;26.40;100.00;101405.22;6092539;23;20058;-82
2023/06/22 07:12:33;;;;;;;29.88;27.38;;;;;;;26.54;100.00;101405.34;6093064;23;20029;-83
2023/06/22 07:15:04;;;;;;;28.20;25.80;;;;;;;26.56;100.00;101419.44;6094348;23;20045;-81
2023/06/22 07:17:31;;;;;;;26.83;24.43;;;;;;;26.72;100.00;101409.94;6092691;23;20029;-81
2023/06/22 07:19:58;;;;;;;26.48;24.38;;;;;;;26.85;100.00;101410.28;6092267;23;20420;-82
2023/06/22 07:22:25;;;;;;;26.58;24.48;;;;;;;26.87;100.00;101408.03;6080296;23;20426;-81
2023/06/22 07:24:54;;;;;;;26.23;24.13;;;;;;;27.14;100.00;101412.72;6063906;23;20027;-82
2023/06/22 07:27:21;;;;;;;26.98;24.50;;;;;;;26.97;100.00;101410.59;6063798;23;20377;-82
2023/06/22 07:29:48;;;;;;;25.52;23.65;;;;;;;27.13;100.00;101409.19;6064013;23;20035;-83
2023/06/22 07:32:15;;;;;;;24.08;22.38;;;;;;;27.20;100.00;101408.84;6065514;23;20042;-83
2023/06/22 07:34:53;;;;;;;26.52;24.52;;;;;;;27.27;100.00;101403.81;6064040;23;20374;-82
2023/06/22 07:37:20;;;;;;;25.65;23.73;;;;;;;27.24;100.00;101406.34;6063571;23;20023;-82
2023/06/22 07:39:46;;;;;;;28.35;26.20;;;;;;;27.05;100.00;101412.66;6063649;23;20160;-82
2023/06/22 07:42:18;;;;;;;27.80;25.80;;;;;;;27.40;100.00;101404.91;6063495;23;20466;-81
2023/06/22 07:44:45;;;;;;;24.83;23.02;;;;;;;27.40;100.00;101407.66;6064965;23;20103;-82
2023/06/22 07:47:17;;;;;;;34.35;32.25;;;;;;;27.15;100.00;101393.41;6066250;23;20181;-82
2023/06/22 07:49:44;;;;;;;33.33;31.40;;;;;;;27.62;100.00;101398.75;6066334;23;20023;-82
2023/06/22 07:52:13;;;;;;;35.15;32.85;;;;;;;27.57;100.00;101401.59;6066940;23;20098;-82
2023/06/22 07:54:40;;;;;;;36.50;34.22;;;;;;;27.43;100.00;101395.31;6066284;23;20422;-83
2023/06/22 07:57:07;;;;;;;31.45;29.15;;;;;;;27.01;100.00;101399.91;6067177;23;20019;-83
2023/06/22 07:59:36;;;;;;;30.85;28.73;;;;;;;27.71;100.00;101404.28;6066995;23;20023;-82
2023/06/22 08:02:04;;;;;;;33.85;31.75;;;;;;;27.74;100.00;101409.94;6064882;23;20034;-82
2023/06/22 08:04:33;;;;;;;33.13;30.92;;;;;;;27.28;100.00;101405.41;6065348;23;20473;-82
2023/06/22 08:07:00;;;;;;;34.47;32.25;;;;;;;27.20;100.00;101408.84;6065297;23;20082;-82
2023/06/22 08:09:29;;;;;;;34.80;32.50;;;;;;;27.62;100.00;101401.47;6065945;23;20026;-82
2023/06/22 08:11:56;;;;;;;31.40;29.02;;;;;;;27.46;100.00;101406.44;6065538;23;20030;-82
2023/06/22 08:14:23;;;;;;;31.15;28.80;;;;;;;27.93;100.00;101407.13;6065757;23;20034;-82
2023/06/22 08:16:52;;;;;;;30.95;28.63;;;;;;;28.32;100.00;101405.69;6065299;23;20019;-82
2023/06/22 08:19:19;;;;;;;32.88;30.40;;;;;;;28.25;100.00;101397.94;6065371;23;20105;-82
2023/06/22 08:21:46;;;;;;;33.55;31.35;;;;;;;28.06;100.00;101403.56;6065238;23;20023;-83
2023/06/22 08:24:13;;;;;;;32.40;29.85;;;;;;;28.39;100.00;101405.28;6067604;23;20057;-83
2023/06/22 08:26:40;;;;;;;30.77;28.58;;;;;;;28.42;100.00;101400.03;6067516;23;20102;-83
2023/06/22 08:29:07;;;;;;;33.13;30.50;;;;;;;28.40;100.00;101404.16;6066999;23;20436;-83
2023/06/22 08:31:34;;;;;;;31.88;29.67;;;;;;;27.98;100.00;101398.00;6067267;23;20556;-84
2023/06/22 08:34:02;;;;;;;29.88;27.83;;;;;;;28.05;100.00;101395.69;6066965;23;20409;-83
2023/06/22 08:36:32;;;;;;;32.20;29.80;;;;;;;28.08;100.00;101400.53;6067519;23;20090;-83
2023/06/22 08:39:02;;;;;;;34.08;31.98;;;;;;;28.46;100.00;101402.94;6067018;23;20062;-83
2023/06/22 08:41:29;;;;;;;30.42;28.52;;;;;;;28.75;100.00;101402.50;6067266;23;20026;-83
2023/06/22 08:43:57;;;;;;;36.38;34.17;;;;;;;28.59;100.00;101401.25;6067045;23;20098;-83
2023/06/22 08:46:30;;;;;;;37.08;34.88;;;;;;;28.87;100.00;101410.94;6066419;23;20037;-82
2023/06/22 08:48:57;;;;;;;36.53;34.10;;;;;;;28.84;100.00;101406.09;6064943;23;20392;-82
2023/06/22 08:51:26;;;;;;;33.47;31.38;;;;;;;28.53;100.00;101406.03;6064660;23;20548;-82
2023/06/22 08:53:53;;;;;;;34.05;31.95;;;;;;;27.96;100.00;101395.59;6064705;23;20020;-82
2023/06/22 08:56:19;;;;;;;30.17;28.08;;;;;;;27.62;100.00;101409.66;6063786;23;20519;-82
2023/06/22 08:58:46;;;;;;;30.17;27.83;;;;;;;28.84;100.00;101399.84;6064293;23;20058;-83
2023/06/22 09:01:15;;;;;;;28.75;26.85;;;;;;;27.82;100.00;101394.81;6064364;23;20101;-82
2023/06/22 09:03:42;;;;;;;25.27;23.23;;;;;;;28.46;100.00;101389.28;6064150;23;20029;-81
2023/06/22 09:06:10;;;;;;;24.33;22.52;;;;;;;28.93;100.00;101393.28;6064710;23;20019;-82
2023/06/22 09:08:38;;;;;;;26.02;24.02;;;;;;;29.13;100.00;101397.41;6064945;23;20026;-83
2023/06/22 09:11:05;;;;;;;30.08;28.08;;;;;;;29.31;100.00;101392.03;6063847;23;20046;-82
2023/06/22 09:13:35;;;;;;;29.20;27.20;;;;;;;28.49;100.00;101389.47;6064162;23;20023;-83
2023/06/22 09:16:02;;;;;;;30.20;28.10;;;;;;;28.20;100.00;101391.78;6064572;23;20062;-83
2023/06/22 09:18:29;;;;;;;30.17;28.05;;;;;;;28.18;100.00;101385.84;6065038;23;20059;-83
2023/06/22 09:20:57;;;;;;;32.28;29.77;;;;;;;27.98;100.00;101387.09;6065145;23;20030;-82
2023/06/22 09:23:24;;;;;;;33.22;30.88;;;;;;;28.14;100.00;101382.09;6064685;23;20023;-82
2023/06/22 09:25:53;;;;;;;30.83;28.27;;;;;;;28.06;100.00;101387.19;6063737;23;20051;-82
2023/06/22 09:28:20;;;;;;;35.28;32.97;;;;;;;28.43;100.00;101379.78;6063935;23;20418;-82
2023/06/22 09:30:47;;;;;;;35.80;33.08;;;;;;;29.38;100.00;101381.41;6065106;23;20053;-82
2023/06/22 09:33:14;;;;;;;34.45;32.05;;;;;;;29.19;100.00;101387.94;6065194;23;20019;-82
2023/06/22 09:35:43;;;;;;;34.78;32.28;;;;;;;28.15;100.00;101386.44;6064947;23;20054;-83
2023/06/22 09:38:10;;;;;;;28.55;26.23;;;;;;;28.97;100.00;101393.47;6063821;23;20062;-82
2023/06/22 09:40:39;;;;;;;28.13;25.67;;;;;;;28.53;100.00;101385.00;6065093;23;20069;-83
2023/06/22 09:43:08;;;;;;;28.58;26.27;;;;;;;28.99;100.00;101385.75;6064848;23;20030;-82
2023/06/22 09:45:36;;;;;;;27.38;25.27;;;;;;;28.99;100.00;101383.81;6065388;23;20540;-83
2023/06/22 09:48:03;;;;;;;26.33;24.33;;;;;;;29.36;100.00;101376.28;6066330;23;20057;-84
2023/06/22 09:50:30;;;;;;;26.48;24.48;;;;;;;29.57;100.00;101378.44;6066193;23;20022;-84
2023/06/22 09:52:57;;;;;;;26.58;24.50;;;;;;;29.95;100.00;101367.72;6066166;23;20023;-83
2023/06/22 09:55:24;;;;;;;28.23;26.10;;;;;;;29.44;100.00;101361.00;6066428;23;20027;-83
2023/06/22 09:57:51;;;;;;;27.73;25.63;;;;;;;29.62;100.00;101359.13;6064825;23;20019;-82
2023/06/22 10:00:21;;;;;;;27.40;25.05;;;;;;;28.77;100.00;101375.66;6066738;23;20331;-84
2023/06/22 10:02:48;;;;;;;29.85;27.65;;;;;;;29.74;100.00;101356.56;6066510;23;20022;-84
2023/06/22 10:05:15;;;;;;;28.27;26.08;;;;;;;29.81;100.00;101359.66;6065265;23;20019;-85
2023/06/22 10:07:43;;;;;;;27.13;24.73;;;;;;;29.90;100.00;101363.22;6064833;23;20023;-81
2023/06/22 10:10:11;;;;;;;27.63;25.45;;;;;;;29.44;100.00;101367.28;6064592;23;20019;-84
2023/06/22 10:12:43;;;;;;;28.70;26.50;;;;;;;29.50;100.00;101362.47;6065281;23;20058;-84
2023/06/22 10:15:11;;;;;;;30.45;27.92;;;;;;;30.41;100.00;101365.47;6066576;23;20030;-83
2023/06/22 10:17:40;;;;;;;26.05;23.85;;;;;;;30.34;100.00;101355.00;6065900;23;20461;-82
2023/06/22 10:20:11;;;;;;;27.65;25.35;;;;;;;29.85;100.00;101355.16;6064260;23;20023;-81
2023/06/22 10:22:39;;;;;;;28.45;26.00;;;;;;;30.36;100.00;101358.22;6063997;23;20019;-82
2023/06/22 10:25:07;;;;;;;27.95;25.65;;;;;;;29.78;100.00;101352.09;6064295;23;20023;-82
2023/06/22 10:27:34;;;;;;;28.90;26.40;;;;;;;29.96;100.00;101357.59;6063540;23;20023;-83
2023/06/22 10:30:01;;;;;;;28.30;26.08;;;;;;;30.55;100.00;101352.38;6064480;23;20015;-84
2023/06/22 10:32:29;;;;;;;31.30;28.48;;;;;;;30.85;100.00;101357.97;6065632;23;20015;-84
2023/06/22 10:34:57;;;;;;;29.83;27.42;;;;;;;30.65;100.00;101348.47;6065419;23;20083;-81
2023/06/22 10:37:24;;;;;;;28.85;26.30;;;;;;;30.69;100.00;101350.25;6064737;23;20034;-83
2023/06/22 10:39:51;;;;;;;27.08;25.08;;;;;;;30.64;100.00;101339.47;6064873;23;20093;-84
2023/06/22 10:42:18;;;;;;;26.27;24.23;;;;;;;30.49;100.00;101342.72;6065285;23;20027;-85
2023/06/22 10:44:45;;;;;;;26.92;24.55;;;;;;;31.01;100.00;101337.88;6065914;23;20030;-84
2023/06/22 10:47:16;;;;;;;28.52;25.98;;;;;;;30.21;100.00;101334.88;6066193;23;20440;-83
2023/06/22 10:49:43;;;;;;;26.52;24.42;;;;;;;29.81;100.00;101332.28;6065708;23;20104;-83
2023/06/22 10:52:11;;;;;;;29.02;26.75;;;;;;;31.23;100.00;101330.56;6065315;23;20030;-83
2023/06/22 10:54:39;;;;;;;36.42;33.53;;;;;;;30.14;100.00;101323.59;6065755;23;20015;-83
2023/06/22 10:57:07;;;;;;;36.42;33.70;;;;;;;30.59;100.00;101331.41;6065271;23;20030;-84
2023/06/22 10:59:34;;;;;;;37.90;35.10;;;;;;;30.23;100.00;101323.56;6065599;23;20046;-86
2023/06/22 11:02:02;;;;;;;37.03;34.42;;;;;;;30.53;100.00;101330.81;6065519;23;20021;-85